sensor_id;sensor_type;location;lat;lon;timestamp;pressure;altitude;pressure_sealevel;temperature;humidity
35519;BME280;21627;48.216;16.482;2023-07-30T00:01:11;99406.03;;;23.04;75.86
35519;BME280;21627;48.216;16.482;2023-07-30T00:03:38;99395.50;;;23.04;76.15
35519;BME280;21627;48.216;16.482;2023-07-30T00:06:06;99397.28;;;23.03;77.34
35519;BME280;21627;48.216;16.482;2023-07-30T00:08:33;99397.28;;;23.03;76.47
35519;BME280;21627;48.216;16.482;2023-07-30T00:11:00;99374.81;;;22.96;77.66
35519;BME280;21627;48.216;16.482;2023-07-30T00:13:27;99367.81;;;22.95;77.43
35519;BME280;21627;48.216;16.482;2023-07-30T00:15:54;99380.94;;;22.97;77.39
35519;BME280;21627;48.216;16.482;2023-07-30T00:18:21;99378.38;;;22.95;78.68
35519;BME280;21627;48.216;16.482;2023-07-30T00:20:48;99378.91;;;23.02;78.46
35519;BME280;21627;48.216;16.482;2023-07-30T00:23:15;99376.53;;;22.97;79.05
35519;BME280;21627;48.216;16.482;2023-07-30T00:25:42;99373.34;;;22.90;80.55
35519;BME280;21627;48.216;16.482;2023-07-30T00:28:10;99369.78;;;22.92;82.30
35519;BME280;21627;48.216;16.482;2023-07-30T00:30:37;99375.25;;;22.88;81.54
35519;BME280;21627;48.216;16.482;2023-07-30T00:33:04;99378.91;;;22.86;82.08
35519;BME280;21627;48.216;16.482;2023-07-30T00:35:31;99385.03;;;22.86;84.21
35519;BME280;21627;48.216;16.482;2023-07-30T00:37:58;99378.22;;;22.82;86.79
35519;BME280;21627;48.216;16.482;2023-07-30T00:40:25;99374.22;;;22.75;89.82
35519;BME280;21627;48.216;16.482;2023-07-30T00:42:52;99364.56;;;22.76;87.59
35519;BME280;21627;48.216;16.482;2023-07-30T00:45:19;99368.28;;;22.72;87.31
35519;BME280;21627;48.216;16.482;2023-07-30T00:47:47;99359.84;;;22.65;87.18
35519;BME280;21627;48.216;16.482;2023-07-30T00:50:15;99348.47;;;22.64;87.44
35519;BME280;21627;48.216;16.482;2023-07-30T00:52:43;99354.78;;;22.62;86.86
35519;BME280;21627;48.216;16.482;2023-07-30T00:55:11;99350.59;;;22.58;86.98
35519;BME280;21627;48.216;16.482;2023-07-30T00:57:39;99348.72;;;22.60;85.97
35519;BME280;21627;48.216;16.482;2023-07-30T01:00:08;99340.41;;;22.52;86.46
35519;BME280;21627;48.216;16.482;2023-07-30T01:02:36;99343.88;;;22.52;86.68
35519;BME280;21627;48.216;16.482;2023-07-30T01:05:04;99348.25;;;22.53;85.83
35519;BME280;21627;48.216;16.482;2023-07-30T01:07:32;99340.59;;;22.49;85.57
35519;BME280;21627;48.216;16.482;2023-07-30T01:10:01;99341.50;;;22.47;84.39
35519;BME280;21627;48.216;16.482;2023-07-30T01:12:30;99338.88;;;22.47;86.07
35519;BME280;21627;48.216;16.482;2023-07-30T01:15:00;99337.19;;;22.46;86.64
35519;BME280;21627;48.216;16.482;2023-07-30T01:17:28;99322.47;;;22.42;85.44
35519;BME280;21627;48.216;16.482;2023-07-30T01:19:55;99326.81;;;22.43;85.52
35519;BME280;21627;48.216;16.482;2023-07-30T01:22:23;99324.38;;;22.40;84.39
35519;BME280;21627;48.216;16.482;2023-07-30T01:24:51;99330.47;;;22.41;83.28
35519;BME280;21627;48.216;16.482;2023-07-30T01:27:29;99328.75;;;22.40;84.37
35519;BME280;21627;48.216;16.482;2023-07-30T01:30:22;99333.78;;;22.44;82.72
35519;BME280;21627;48.216;16.482;2023-07-30T01:32:52;99330.56;;;22.39;83.99
35519;BME280;21627;48.216;16.482;2023-07-30T01:35:27;99340.84;;;22.44;83.50
35519;BME280;21627;48.216;16.482;2023-07-30T01:37:55;99336.50;;;22.43;83.88
35519;BME280;21627;48.216;16.482;2023-07-30T01:40:22;99333.78;;;22.44;83.64
35519;BME280;21627;48.216;16.482;2023-07-30T01:42:50;99329.47;;;22.43;83.17
35519;BME280;21627;48.216;16.482;2023-07-30T01:45:18;99336.59;;;22.41;83.05
35519;BME280;21627;48.216;16.482;2023-07-30T01:47:45;99337.44;;;22.42;84.40
35519;BME280;21627;48.216;16.482;2023-07-30T01:50:13;99329.72;;;22.39;83.45
35519;BME280;21627;48.216;16.482;2023-07-30T01:52:40;99332.56;;;22.50;81.74
35519;BME280;21627;48.216;16.482;2023-07-30T01:55:07;99330.13;;;22.47;82.78
35519;BME280;21627;48.216;16.482;2023-07-30T01:57:35;99333.13;;;22.41;83.35
35519;BME280;21627;48.216;16.482;2023-07-30T02:00:02;99334.22;;;22.37;83.94
35519;BME280;21627;48.216;16.482;2023-07-30T02:02:30;99335.16;;;22.36;84.56
35519;BME280;21627;48.216;16.482;2023-07-30T02:04:57;99338.69;;;22.35;83.69
35519;BME280;21627;48.216;16.482;2023-07-30T02:07:24;99323.91;;;22.32;83.77
35519;BME280;21627;48.216;16.482;2023-07-30T02:09:51;99333.59;;;22.32;84.62
35519;BME280;21627;48.216;16.482;2023-07-30T02:12:18;99332.69;;;22.33;84.12
35519;BME280;21627;48.216;16.482;2023-07-30T02:14:45;99339.41;;;22.38;82.79
35519;BME280;21627;48.216;16.482;2023-07-30T02:17:12;99329.34;;;22.29;83.63
35519;BME280;21627;48.216;16.482;2023-07-30T02:19:39;99334.56;;;22.31;83.70
35519;BME280;21627;48.216;16.482;2023-07-30T02:22:06;99326.72;;;22.29;83.87
35519;BME280;21627;48.216;16.482;2023-07-30T02:24:34;99325.53;;;22.35;84.19
35519;BME280;21627;48.216;16.482;2023-07-30T02:27:01;99323.00;;;22.33;83.84
35519;BME280;21627;48.216;16.482;2023-07-30T02:29:28;99329.19;;;22.32;83.49
35519;BME280;21627;48.216;16.482;2023-07-30T02:31:55;99315.09;;;22.33;83.27
35519;BME280;21627;48.216;16.482;2023-07-30T02:34:22;99316.88;;;22.33;83.46
35519;BME280;21627;48.216;16.482;2023-07-30T02:36:49;99317.91;;;22.30;84.65
35519;BME280;21627;48.216;16.482;2023-07-30T02:39:17;99324.88;;;22.31;83.25
35519;BME280;21627;48.216;16.482;2023-07-30T02:41:44;99327.69;;;22.28;83.48
35519;BME280;21627;48.216;16.482;2023-07-30T02:44:11;99331.31;;;22.25;84.46
35519;BME280;21627;48.216;16.482;2023-07-30T02:46:38;99328.69;;;22.25;85.50
35519;BME280;21627;48.216;16.482;2023-07-30T02:49:05;99334.88;;;22.24;85.52
35519;BME280;21627;48.216;16.482;2023-07-30T02:51:32;99328.75;;;22.24;83.00
35519;BME280;21627;48.216;16.482;2023-07-30T02:54:05;99324.66;;;22.18;83.96
35519;BME280;21627;48.216;16.482;2023-07-30T02:56:32;99336.75;;;22.22;83.80
35519;BME280;21627;48.216;16.482;2023-07-30T02:59:01;99321.13;;;22.35;81.42
35519;BME280;21627;48.216;16.482;2023-07-30T03:01:28;99324.69;;;22.34;81.82
35519;BME280;21627;48.216;16.482;2023-07-30T03:03:55;99315.53;;;22.25;81.92
35519;BME280;21627;48.216;16.482;2023-07-30T03:06:22;99320.78;;;22.25;81.80
35519;BME280;21627;48.216;16.482;2023-07-30T03:08:49;99316.53;;;22.23;82.54
35519;BME280;21627;48.216;16.482;2023-07-30T03:11:16;99319.91;;;22.25;82.26
35519;BME280;21627;48.216;16.482;2023-07-30T03:13:43;99321.88;;;22.21;83.45
35519;BME280;21627;48.216;16.482;2023-07-30T03:16:10;99326.44;;;22.18;84.72
35519;BME280;21627;48.216;16.482;2023-07-30T03:18:37;99315.16;;;22.16;83.82
35519;BME280;21627;48.216;16.482;2023-07-30T03:21:04;99311.81;;;22.12;83.81
35519;BME280;21627;48.216;16.482;2023-07-30T03:23:31;99322.72;;;22.22;83.54
35519;BME280;21627;48.216;16.482;2023-07-30T03:25:59;99313.34;;;22.16;83.39
35519;BME280;21627;48.216;16.482;2023-07-30T03:28:29;99315.56;;;22.08;84.81
35519;BME280;21627;48.216;16.482;2023-07-30T03:30:56;99323.34;;;22.10;85.31
35519;BME280;21627;48.216;16.482;2023-07-30T03:33:23;99320.13;;;22.04;86.12
35519;BME280;21627;48.216;16.482;2023-07-30T03:35:51;99320.06;;;22.06;84.86
35519;BME280;21627;48.216;16.482;2023-07-30T03:38:18;99325.16;;;22.09;84.63
35519;BME280;21627;48.216;16.482;2023-07-30T03:40:45;99321.75;;;22.07;84.09
35519;BME280;21627;48.216;16.482;2023-07-30T03:43:12;99320.00;;;22.08;85.28
35519;BME280;21627;48.216;16.482;2023-07-30T03:45:39;99327.94;;;22.06;86.12
35519;BME280;21627;48.216;16.482;2023-07-30T03:48:06;99321.31;;;21.99;87.34
35519;BME280;21627;48.216;16.482;2023-07-30T03:50:33;99323.03;;;22.00;87.54
35519;BME280;21627;48.216;16.482;2023-07-30T03:53:00;99328.19;;;22.01;86.80
35519;BME280;21627;48.216;16.482;2023-07-30T03:55:27;99334.59;;;21.97;87.62
35519;BME280;21627;48.216;16.482;2023-07-30T03:57:55;99324.19;;;21.94;88.53
35519;BME280;21627;48.216;16.482;2023-07-30T04:00:22;99329.56;;;21.93;88.99
35519;BME280;21627;48.216;16.482;2023-07-30T04:02:49;99336.69;;;21.91;89.69
35519;BME280;21627;48.216;16.482;2023-07-30T04:05:16;99342.78;;;21.91;89.77
35519;BME280;21627;48.216;16.482;2023-07-30T04:07:43;99346.38;;;21.90;88.81
35519;BME280;21627;48.216;16.482;2023-07-30T04:10:10;99334.34;;;21.85;89.69
35519;BME280;21627;48.216;16.482;2023-07-30T04:12:38;99341.41;;;21.84;90.57
35519;BME280;21627;48.216;16.482;2023-07-30T04:15:06;99333.50;;;21.84;91.17
35519;BME280;21627;48.216;16.482;2023-07-30T04:17:36;99347.28;;;21.89;91.14
35519;BME280;21627;48.216;16.482;2023-07-30T04:20:04;99337.75;;;21.87;90.94
35519;BME280;21627;48.216;16.482;2023-07-30T04:22:32;99348.41;;;21.85;89.78
35519;BME280;21627;48.216;16.482;2023-07-30T04:24:59;99340.50;;;21.85;91.39
35519;BME280;21627;48.216;16.482;2023-07-30T04:27:26;99348.41;;;21.85;91.48
35519;BME280;21627;48.216;16.482;2023-07-30T04:29:57;99342.34;;;21.83;90.47
35519;BME280;21627;48.216;16.482;2023-07-30T04:32:24;99348.28;;;21.87;92.19
35519;BME280;21627;48.216;16.482;2023-07-30T04:34:51;99339.72;;;21.83;92.92
35519;BME280;21627;48.216;16.482;2023-07-30T04:37:18;99336.06;;;21.86;92.07
35519;BME280;21627;48.216;16.482;2023-07-30T04:39:45;99349.84;;;21.91;91.82
35519;BME280;21627;48.216;16.482;2023-07-30T04:42:12;99345.59;;;21.88;91.42
35519;BME280;21627;48.216;16.482;2023-07-30T04:44:40;99342.19;;;21.86;91.19
35519;BME280;21627;48.216;16.482;2023-07-30T04:47:07;99344.81;;;21.86;91.21
35519;BME280;21627;48.216;16.482;2023-07-30T04:49:34;99331.22;;;21.78;93.49
35519;BME280;21627;48.216;16.482;2023-07-30T04:52:02;99346.59;;;21.86;92.89
35519;BME280;21627;48.216;16.482;2023-07-30T04:54:29;99354.50;;;21.86;93.97
35519;BME280;21627;48.216;16.482;2023-07-30T04:56:56;99349.31;;;21.84;94.26
35519;BME280;21627;48.216;16.482;2023-07-30T04:59:23;99353.56;;;21.87;94.91
35519;BME280;21627;48.216;16.482;2023-07-30T05:01:50;99360.69;;;21.85;95.67
35519;BME280;21627;48.216;16.482;2023-07-30T05:04:17;99362.28;;;21.87;96.26
35519;BME280;21627;48.216;16.482;2023-07-30T05:06:44;99368.50;;;21.86;95.38
35519;BME280;21627;48.216;16.482;2023-07-30T05:09:11;99360.69;;;21.85;97.43
35519;BME280;21627;48.216;16.482;2023-07-30T05:11:39;99373.78;;;21.86;97.13
35519;BME280;21627;48.216;16.482;2023-07-30T05:14:07;99365.09;;;21.84;98.36
35519;BME280;21627;48.216;16.482;2023-07-30T05:16:34;99371.97;;;21.87;97.30
35519;BME280;21627;48.216;16.482;2023-07-30T05:19:03;99373.00;;;21.84;96.70
35519;BME280;21627;48.216;16.482;2023-07-30T05:21:30;99367.31;;;21.92;94.69
35519;BME280;21627;48.216;16.482;2023-07-30T05:23:57;99375.16;;;21.93;97.49
35519;BME280;21627;48.216;16.482;2023-07-30T05:26:24;99370.66;;;21.95;97.90
35519;BME280;21627;48.216;16.482;2023-07-30T05:28:51;99361.91;;;21.95;97.80
35519;BME280;21627;48.216;16.482;2023-07-30T05:31:18;99371.25;;;22.00;94.98
35519;BME280;21627;48.216;16.482;2023-07-30T05:33:45;99365.91;;;22.02;95.30
35519;BME280;21627;48.216;16.482;2023-07-30T05:36:12;99358.34;;;21.96;95.95
35519;BME280;21627;48.216;16.482;2023-07-30T05:38:39;99357.31;;;21.98;96.66
35519;BME280;21627;48.216;16.482;2023-07-30T05:41:07;99356.16;;;22.04;95.71
35519;BME280;21627;48.216;16.482;2023-07-30T05:43:34;99363.81;;;22.09;93.94
35519;BME280;21627;48.216;16.482;2023-07-30T05:46:01;99349.09;;;22.04;95.82
35519;BME280;21627;48.216;16.482;2023-07-30T05:48:28;99358.47;;;22.10;95.46
35519;BME280;21627;48.216;16.482;2023-07-30T05:50:55;99348.00;;;22.09;97.06
35519;BME280;21627;48.216;16.482;2023-07-30T05:53:22;99345.78;;;22.17;92.67
35519;BME280;21627;48.216;16.482;2023-07-30T05:55:50;99344.88;;;22.18;95.82
35519;BME280;21627;48.216;16.482;2023-07-30T05:58:17;99337.91;;;22.17;99.25
35519;BME280;21627;48.216;16.482;2023-07-30T06:00:44;99338.84;;;22.16;99.77
35519;BME280;21627;48.216;16.482;2023-07-30T06:03:11;99346.63;;;22.17;100.00
35519;BME280;21627;48.216;16.482;2023-07-30T06:05:42;99353.69;;;22.17;100.00
35519;BME280;21627;48.216;16.482;2023-07-30T06:08:10;99351.31;;;22.12;100.00
35519;BME280;21627;48.216;16.482;2023-07-30T06:10:38;99355.56;;;22.15;100.00
35519;BME280;21627;48.216;16.482;2023-07-30T06:13:05;99353.56;;;22.20;98.25
35519;BME280;21627;48.216;16.482;2023-07-30T06:15:33;99362.38;;;22.19;97.09
35519;BME280;21627;48.216;16.482;2023-07-30T06:18:01;99370.22;;;22.20;96.35
35519;BME280;21627;48.216;16.482;2023-07-30T06:20:30;99380.41;;;22.27;98.08
35519;BME280;21627;48.216;16.482;2023-07-30T06:22:57;99368.28;;;22.24;94.13
35519;BME280;21627;48.216;16.482;2023-07-30T06:25:24;99377.47;;;22.33;90.88
35519;BME280;21627;48.216;16.482;2023-07-30T06:27:51;99386.56;;;22.43;91.29
35519;BME280;21627;48.216;16.482;2023-07-30T06:30:19;99381.19;;;22.44;88.66
35519;BME280;21627;48.216;16.482;2023-07-30T06:32:46;99385.69;;;22.42;90.30
35519;BME280;21627;48.216;16.482;2023-07-30T06:35:13;99382.91;;;22.45;90.04
35519;BME280;21627;48.216;16.482;2023-07-30T06:37:40;99383.59;;;22.49;88.91
35519;BME280;21627;48.216;16.482;2023-07-30T06:40:08;99371.38;;;22.48;90.17
35519;BME280;21627;48.216;16.482;2023-07-30T06:42:35;99375.69;;;22.49;91.38
35519;BME280;21627;48.216;16.482;2023-07-30T06:45:02;99385.13;;;22.53;89.89
35519;BME280;21627;48.216;16.482;2023-07-30T06:47:30;99373.13;;;22.47;89.70
35519;BME280;21627;48.216;16.482;2023-07-30T06:50:00;99386.56;;;22.59;89.36
35519;BME280;21627;48.216;16.482;2023-07-30T06:52:27;99385.72;;;22.58;90.42
35519;BME280;21627;48.216;16.482;2023-07-30T06:54:54;99382.22;;;22.58;90.13
35519;BME280;21627;48.216;16.482;2023-07-30T06:57:21;99391.06;;;22.57;89.41
35519;BME280;21627;48.216;16.482;2023-07-30T06:59:48;99394.47;;;22.59;87.97
35519;BME280;21627;48.216;16.482;2023-07-30T07:02:15;99401.78;;;22.54;89.02
35519;BME280;21627;48.216;16.482;2023-07-30T07:04:42;99397.69;;;22.64;88.44
35519;BME280;21627;48.216;16.482;2023-07-30T07:07:09;99398.72;;;22.61;88.49
35519;BME280;21627;48.216;16.482;2023-07-30T07:09:36;99406.09;;;22.55;89.02
35519;BME280;21627;48.216;16.482;2023-07-30T07:12:04;99409.75;;;22.52;88.80
35519;BME280;21627;48.216;16.482;2023-07-30T07:14:31;99410.34;;;22.41;89.76
35519;BME280;21627;48.216;16.482;2023-07-30T07:16:58;99414.41;;;22.31;93.55
35519;BME280;21627;48.216;16.482;2023-07-30T07:19:26;99418.25;;;22.25;91.50
35519;BME280;21627;48.216;16.482;2023-07-30T07:21:53;99420.78;;;22.27;93.58
35519;BME280;21627;48.216;16.482;2023-07-30T07:24:20;99420.63;;;22.30;93.81
35519;BME280;21627;48.216;16.482;2023-07-30T07:26:47;99430.53;;;22.25;96.62
35519;BME280;21627;48.216;16.482;2023-07-30T07:29:14;99434.88;;;22.26;96.97
35519;BME280;21627;48.216;16.482;2023-07-30T07:31:41;99430.00;;;22.18;96.57
35519;BME280;21627;48.216;16.482;2023-07-30T07:34:08;99429.78;;;22.06;100.00
35519;BME280;21627;48.216;16.482;2023-07-30T07:36:37;99429.25;;;21.99;100.00
35519;BME280;21627;48.216;16.482;2023-07-30T07:39:05;99430.88;;;22.01;100.00
35519;BME280;21627;48.216;16.482;2023-07-30T07:41:33;99420.50;;;21.98;100.00
35519;BME280;21627;48.216;16.482;2023-07-30T07:44:00;99431.28;;;21.94;100.00
35519;BME280;21627;48.216;16.482;2023-07-30T07:46:27;99418.34;;;21.89;100.00
35519;BME280;21627;48.216;16.482;2023-07-30T07:48:54;99424.22;;;21.94;100.00
35519;BME280;21627;48.216;16.482;2023-07-30T07:51:21;99427.34;;;21.85;100.00
35519;BME280;21627;48.216;16.482;2023-07-30T07:53:48;99423.34;;;21.78;100.00
35519;BME280;21627;48.216;16.482;2023-07-30T07:56:15;99426.66;;;21.64;100.00
35519;BME280;21627;48.216;16.482;2023-07-30T07:58:43;99433.88;;;21.60;100.00
35519;BME280;21627;48.216;16.482;2023-07-30T08:01:10;99439.06;;;21.62;100.00
35519;BME280;21627;48.216;16.482;2023-07-30T08:03:37;99437.66;;;21.55;100.00
35519;BME280;21627;48.216;16.482;2023-07-30T08:06:05;99442.13;;;21.53;100.00
35519;BME280;21627;48.216;16.482;2023-07-30T08:08:32;99443.75;;;21.55;100.00
35519;BME280;21627;48.216;16.482;2023-07-30T08:11:05;99445.41;;;21.58;100.00
35519;BME280;21627;48.216;16.482;2023-07-30T08:13:35;99440.41;;;21.52;100.00
35519;BME280;21627;48.216;16.482;2023-07-30T08:16:02;99443.22;;;21.49;100.00
35519;BME280;21627;48.216;16.482;2023-07-30T08:18:29;99443.94;;;21.52;100.00
35519;BME280;21627;48.216;16.482;2023-07-30T08:20:57;99441.13;;;21.55;100.00
35519;BME280;21627;48.216;16.482;2023-07-30T08:23:24;99453.19;;;21.59;100.00
35519;BME280;21627;48.216;16.482;2023-07-30T08:25:51;99449.72;;;21.59;100.00
35519;BME280;21627;48.216;16.482;2023-07-30T08:28:19;99460.56;;;21.70;100.00
35519;BME280;21627;48.216;16.482;2023-07-30T08:30:46;99461.25;;;21.74;100.00
35519;BME280;21627;48.216;16.482;2023-07-30T08:33:13;99459.63;;;21.71;100.00
35519;BME280;21627;48.216;16.482;2023-07-30T08:35:42;99460.56;;;21.70;100.00
35519;BME280;21627;48.216;16.482;2023-07-30T08:38:09;99460.47;;;21.72;100.00
35519;BME280;21627;48.216;16.482;2023-07-30T08:40:36;99469.16;;;21.74;100.00
35519;BME280;21627;48.216;16.482;2023-07-30T08:43:03;99468.69;;;21.83;100.00
35519;BME280;21627;48.216;16.482;2023-07-30T08:45:31;99468.59;;;21.85;100.00
35519;BME280;21627;48.216;16.482;2023-07-30T08:47:59;99463.59;;;21.80;100.00
35519;BME280;21627;48.216;16.482;2023-07-30T08:50:26;99452.91;;;21.83;100.00
35519;BME280;21627;48.216;16.482;2023-07-30T08:52:55;99444.53;;;21.75;100.00
35519;BME280;21627;48.216;16.482;2023-07-30T08:55:24;99463.41;;;21.83;100.00
35519;BME280;21627;48.216;16.482;2023-07-30T08:57:52;99460.25;;;21.76;100.00
35519;BME280;21627;48.216;16.482;2023-07-30T09:00:25;99460.22;;;21.94;100.00
35519;BME280;21627;48.216;16.482;2023-07-30T09:02:55;99441.19;;;21.89;100.00
35519;BME280;21627;48.216;16.482;2023-07-30T09:05:23;99444.59;;;21.91;100.00
35519;BME280;21627;48.216;16.482;2023-07-30T09:07:50;99443.38;;;21.98;100.00
35519;BME280;21627;48.216;16.482;2023-07-30T09:10:17;99444.66;;;22.07;100.00
35519;BME280;21627;48.216;16.482;2023-07-30T09:12:44;99449.50;;;22.14;100.00
35519;BME280;21627;48.216;16.482;2023-07-30T09:15:14;99438.75;;;22.19;100.00
35519;BME280;21627;48.216;16.482;2023-07-30T09:17:42;99439.91;;;22.31;100.00
35519;BME280;21627;48.216;16.482;2023-07-30T09:20:09;99437.03;;;22.35;100.00
35519;BME280;21627;48.216;16.482;2023-07-30T09:22:37;99445.28;;;22.45;100.00
35519;BME280;21627;48.216;16.482;2023-07-30T09:25:08;99436.81;;;22.56;100.00
35519;BME280;21627;48.216;16.482;2023-07-30T09:27:35;99421.41;;;22.64;100.00
35519;BME280;21627;48.216;16.482;2023-07-30T09:30:04;99426.59;;;22.81;100.00
35519;BME280;21627;48.216;16.482;2023-07-30T09:32:34;99427.19;;;22.86;100.00
35519;BME280;21627;48.216;16.482;2023-07-30T09:35:06;99414.34;;;22.96;100.00
35519;BME280;21627;48.216;16.482;2023-07-30T09:37:41;99410.50;;;23.18;100.00
35519;BME280;21627;48.216;16.482;2023-07-30T09:40:12;99402.16;;;23.25;100.00
35519;BME280;21627;48.216;16.482;2023-07-30T09:42:46;99405.06;;;23.51;97.45
35519;BME280;21627;48.216;16.482;2023-07-30T09:45:21;99403.75;;;23.58;93.09
35519;BME280;21627;48.216;16.482;2023-07-30T09:47:51;99400.00;;;23.62;89.41
35519;BME280;21627;48.216;16.482;2023-07-30T09:50:19;99394.34;;;23.68;90.94
35519;BME280;21627;48.216;16.482;2023-07-30T09:52:46;99398.09;;;23.80;90.31
35519;BME280;21627;48.216;16.482;2023-07-30T09:55:14;99395.06;;;24.01;89.56
35519;BME280;21627;48.216;16.482;2023-07-30T09:57:42;99387.44;;;24.10;84.46
35519;BME280;21627;48.216;16.482;2023-07-30T10:00:10;99394.88;;;24.18;84.96
35519;BME280;21627;48.216;16.482;2023-07-30T10:02:41;99395.53;;;24.36;79.44
35519;BME280;21627;48.216;16.482;2023-07-30T10:05:20;99384.88;;;24.37;80.70
35519;BME280;21627;48.216;16.482;2023-07-30T10:08:00;99381.00;;;24.29;80.11
35519;BME280;21627;48.216;16.482;2023-07-30T10:10:29;99392.25;;;24.32;80.68
35519;BME280;21627;48.216;16.482;2023-07-30T10:13:01;99386.22;;;24.30;79.24
35519;BME280;21627;48.216;16.482;2023-07-30T10:15:35;99381.31;;;24.24;83.16
35519;BME280;21627;48.216;16.482;2023-07-30T10:18:02;99366.94;;;24.28;75.95
35519;BME280;21627;48.216;16.482;2023-07-30T10:20:31;99372.34;;;24.27;73.79
35519;BME280;21627;48.216;16.482;2023-07-30T10:23:00;99377.78;;;24.38;79.42
35519;BME280;21627;48.216;16.482;2023-07-30T10:26:09;99364.28;;;24.43;77.68
35519;BME280;21627;48.216;16.482;2023-07-30T10:28:39;99370.59;;;24.54;71.28
35519;BME280;21627;48.216;16.482;2023-07-30T10:31:10;99368.75;;;24.42;76.74
35519;BME280;21627;48.216;16.482;2023-07-30T10:33:50;99366.09;;;24.42;73.60
35519;BME280;21627;48.216;16.482;2023-07-30T10:36:42;99365.34;;;24.40;78.39
35519;BME280;21627;48.216;16.482;2023-07-30T10:39:25;99363.63;;;24.39;78.19
35519;BME280;21627;48.216;16.482;2023-07-30T10:41:57;99368.63;;;24.44;76.01
35519;BME280;21627;48.216;16.482;2023-07-30T10:44:34;99371.56;;;24.39;79.10
35519;BME280;21627;48.216;16.482;2023-07-30T10:47:02;99368.56;;;24.45;78.95
35519;BME280;21627;48.216;16.482;2023-07-30T10:49:39;99369.31;;;24.33;79.66
35519;BME280;21627;48.216;16.482;2023-07-30T10:52:10;99365.47;;;24.24;82.27
35519;BME280;21627;48.216;16.482;2023-07-30T10:54:38;99392.44;;;24.29;84.24
35519;BME280;21627;48.216;16.482;2023-07-30T10:57:06;99403.38;;;24.23;98.43
35519;BME280;21627;48.216;16.482;2023-07-30T10:59:37;99416.84;;;23.75;100.00
35519;BME280;21627;48.216;16.482;2023-07-30T11:02:05;99411.09;;;23.23;100.00
35519;BME280;21627;48.216;16.482;2023-07-30T11:04:35;99416.66;;;22.71;100.00
35519;BME280;21627;48.216;16.482;2023-07-30T11:07:02;99418.59;;;22.35;100.00
35519;BME280;21627;48.216;16.482;2023-07-30T11:09:31;99416.41;;;22.10;100.00
35519;BME280;21627;48.216;16.482;2023-07-30T11:11:58;99407.59;;;21.94;100.00
35519;BME280;21627;48.216;16.482;2023-07-30T11:14:25;99395.22;;;21.78;100.00
35519;BME280;21627;48.216;16.482;2023-07-30T11:16:57;99411.69;;;21.82;100.00
35519;BME280;21627;48.216;16.482;2023-07-30T11:19:26;99403.13;;;21.78;100.00
35519;BME280;21627;48.216;16.482;2023-07-30T11:21:55;99400.09;;;21.86;100.00
35519;BME280;21627;48.216;16.482;2023-07-30T11:24:37;99392.44;;;21.81;100.00
35519;BME280;21627;48.216;16.482;2023-07-30T11:27:04;99384.47;;;21.83;100.00
35519;BME280;21627;48.216;16.482;2023-07-30T11:29:32;99384.09;;;21.73;100.00
35519;BME280;21627;48.216;16.482;2023-07-30T11:31:59;99378.81;;;21.73;100.00
35519;BME280;21627;48.216;16.482;2023-07-30T11:34:29;99383.44;;;21.86;100.00
35519;BME280;21627;48.216;16.482;2023-07-30T11:37:00;99389.13;;;22.11;100.00
35519;BME280;21627;48.216;16.482;2023-07-30T11:39:27;99400.81;;;22.23;100.00
35519;BME280;21627;48.216;16.482;2023-07-30T11:41:55;99385.63;;;22.11;100.00
35519;BME280;21627;48.216;16.482;2023-07-30T11:44:35;99393.72;;;22.08;100.00
35519;BME280;21627;48.216;16.482;2023-07-30T11:47:06;99387.66;;;22.23;100.00
35519;BME280;21627;48.216;16.482;2023-07-30T11:49:33;99386.81;;;22.38;100.00
35519;BME280;21627;48.216;16.482;2023-07-30T11:54:32;99371.50;;;22.77;100.00
35519;BME280;21627;48.216;16.482;2023-07-30T11:56:59;99363.50;;;22.94;100.00
35519;BME280;21627;48.216;16.482;2023-07-30T11:59:26;99366.50;;;23.04;100.00
35519;BME280;21627;48.216;16.482;2023-07-30T12:01:54;99375.31;;;23.03;100.00
35519;BME280;21627;48.216;16.482;2023-07-30T12:04:21;99375.91;;;22.92;100.00
35519;BME280;21627;48.216;16.482;2023-07-30T12:06:51;99379.41;;;22.77;100.00
35519;BME280;21627;48.216;16.482;2023-07-30T12:09:23;99391.34;;;22.68;100.00
35519;BME280;21627;48.216;16.482;2023-07-30T12:11:55;99375.16;;;22.42;100.00
35519;BME280;21627;48.216;16.482;2023-07-30T12:14:52;99379.13;;;22.18;100.00
35519;BME280;21627;48.216;16.482;2023-07-30T12:17:20;99383.72;;;21.97;100.00
35519;BME280;21627;48.216;16.482;2023-07-30T12:19:47;99384.28;;;21.86;100.00
35519;BME280;21627;48.216;16.482;2023-07-30T12:22:14;99388.34;;;21.76;100.00
35519;BME280;21627;48.216;16.482;2023-07-30T12:24:42;99377.91;;;21.57;100.00
35519;BME280;21627;48.216;16.482;2023-07-30T12:27:09;99394.41;;;21.60;100.00
35519;BME280;21627;48.216;16.482;2023-07-30T12:29:36;99384.16;;;21.54;100.00
35519;BME280;21627;48.216;16.482;2023-07-30T12:32:03;99377.06;;;21.56;100.00
35519;BME280;21627;48.216;16.482;2023-07-30T12:34:31;99378.78;;;21.57;100.00
35519;BME280;21627;48.216;16.482;2023-07-30T12:36:58;99387.19;;;21.64;100.00
35519;BME280;21627;48.216;16.482;2023-07-30T12:39:26;99386.16;;;21.84;100.00
35519;BME280;21627;48.216;16.482;2023-07-30T12:41:53;99383.59;;;22.00;100.00
35519;BME280;21627;48.216;16.482;2023-07-30T12:44:20;99382.09;;;21.94;100.00
35519;BME280;21627;48.216;16.482;2023-07-30T12:46:48;99377.94;;;21.90;100.00
35519;BME280;21627;48.216;16.482;2023-07-30T12:49:15;99389.56;;;21.86;100.00
35519;BME280;21627;48.216;16.482;2023-07-30T12:51:42;99383.69;;;21.81;100.00
35519;BME280;21627;48.216;16.482;2023-07-30T12:54:09;99379.59;;;21.75;100.00
35519;BME280;21627;48.216;16.482;2023-07-30T12:56:36;99380.28;;;21.79;100.00